Aeroporto :
LOGIN :

Iscrizione | Disclaimer

   EN    FR    IT 

 










Sommario :    VFR   VFR Marginale   IFR   IFR Intensivo   IFR Molto Intensivo
Visibilità : 
Base nubi : 
>= 8 km
>= 3000ft
5 / 8 km
1000 / 3000 ft
1500m / 5 km
500 / 1000 ft
800 / 1500m
200 / 500 ft
< 800m
< 200 ft
Simboli :   Temporali  Nebbia  Neve Forte  Precipitazioni Forti  Vento > 20 kt
SIGMETs :   Varie  Temporali  Ghiacco  Turbolenza  Onda orograficha  Ceneri Vulcaniche







- Altitudine del aeroporto : 626 ft
- Codice IATA : CRA


LRCV - Craiova

ULTIMO METAR :
  • 200930Z 10007KT 9999 FEW019 SCT023 11/06 Q1027

METARs OBSOLETI :
  • 200900Z 10009KT 9999 FEW017 11/05 Q1027
  • 200830Z 10010KT 9999 SCT040 10/05 Q1027
  • 200800Z 10010KT 9999 BKN038 10/05 Q1026
  • 200730Z 10011KT 9999 BKN035 09/05 Q1026
  • 200700Z 10009KT 9999 OVC033 09/05 Q1026

TAF TAF LRCV
Valido dal 20 a 09 ore il 20 a 18 ore UTC


200800Z 2009/2018 10010KT 9999 BKN040
Nessun NOTAM noto per questo aeroporto.



MetMap, La meteo Aeronautica in un colpo d'occhio ! - Copyright ORBIFLY Dicembre 2007 - Disclaimer

ORBIFLY MET'MAP TEAM :

Programmazione e sviluppo : Alexandra Zaïnal
Concezione e sviluppo : Baudouin d'Aumeries
Co-Programmazione e sviluppo : Marc-Olivier Méhu
Supporto tecnico e logistico : Manuel Goepfert
Aiuto per la traduzione : Arnaldo La Scala

Contatto : metmap@orbifly.com




FONTI E CREDITI :

   NOAA